Terminal Aerodrome Forecast
Issued by NWS Atlanta, GA

Home | Current Version | Previous Version | Text Only | Print | Product List | Glossary On
Versions: 1 2 3 4 5 6 7 8 9 10 11 12 13 14 15 16 17 18 19 20 21 22 23 24 25 26 27 28 29 30 31 32 33 34 35 36 37 38 39 40
536
FTAK31 PAJN 032328
TAFAHN
TAF
PAHN 032328Z 0400/0424 12012G20KT P6SM FEW060
     FM040300 12010KT P6SM FEW060
     FM040800 11005KT P6SM VCSH BKN060
     FM041800 13012KT P6SM VCSH OVC060
      AMD LTD TO CLD VIS AND WIND=

USA.gov is the U.S. government's official web portal to all federal, state and local government web resources and services.